Time;durP1;ratioP1;P1;durP2;ratioP2;P2;SDS_P1;SDS_P2;PMS_P1;PMS_P2;Temp;Humidity;BMP_temperature;BMP_pressure;BME280_temperature;BME280_humidity;BME280_pressure;Samples;Min_cycle;Max_cycle;Signal;HPM_P1;HPM_P2
2020/12/29 00:02:13;;;;;;;16.67;11.50;;;;;;;3.64;77.90;97867.09;5024457;28;20490;-72
2020/12/29 00:04:40;;;;;;;14.20;11.77;;;;;;;3.79;77.95;97863.53;5017810;28;20175;-72
2020/12/29 00:07:05;;;;;;;14.90;11.80;;;;;;;4.17;76.08;97864.88;5017363;28;20183;-72
2020/12/29 00:09:30;;;;;;;14.97;12.03;;;;;;;4.42;74.63;97849.97;5017965;28;20421;-71
2020/12/29 00:11:56;;;;;;;14.70;12.13;;;;;;;3.42;77.67;97859.56;5018209;28;20826;-71
2020/12/29 00:14:23;;;;;;;14.00;11.43;;;;;;;3.47;78.02;97869.84;5018279;28;20207;-71
2020/12/29 00:16:48;;;;;;;12.83;11.10;;;;;;;3.98;75.53;97862.50;5001272;28;20175;-71
2020/12/29 00:19:17;;;;;;;14.00;10.90;;;;;;;3.81;75.68;97862.66;5018299;28;20723;-71
2020/12/29 00:21:42;;;;;;;13.33;11.07;;;;;;;3.67;76.87;97860.22;5016800;28;20171;-72
2020/12/29 00:24:08;;;;;;;12.60;11.10;;;;;;;3.79;75.55;97858.38;5017551;28;20768;-71
2020/12/29 00:26:34;;;;;;;12.80;11.50;;;;;;;4.03;75.93;97858.16;5018396;28;20199;-70
2020/12/29 00:29:00;;;;;;;12.13;10.83;;;;;;;3.25;76.95;97856.25;5017015;28;20426;-71
2020/12/29 00:31:26;;;;;;;11.40;9.47;;;;;;;2.98;78.16;97853.88;5027196;28;20273;-72
2020/12/29 00:33:52;;;;;;;12.53;10.97;;;;;;;4.17;75.71;97858.00;5029823;28;20442;-72
2020/12/29 00:36:21;;;;;;;11.53;9.70;;;;;;;3.52;75.75;97852.63;5018734;28;20259;-72
2020/12/29 00:38:46;;;;;;;11.33;10.23;;;;;;;3.24;77.77;97850.28;5017368;28;20426;-71
2020/12/29 00:41:12;;;;;;;11.30;9.77;;;;;;;3.31;77.24;97849.34;5019695;28;20536;-71
2020/12/29 00:43:39;;;;;;;10.87;9.77;;;;;;;3.34;75.18;97838.16;5021233;28;20522;-71
2020/12/29 00:46:25;;;;;;;10.80;9.40;;;;;;;2.84;78.40;97846.25;5017308;28;20421;-71
2020/12/29 00:48:51;;;;;;;12.53;9.00;;;;;;;2.63;79.55;97847.22;5025132;28;20438;-72
2020/12/29 00:51:20;;;;;;;10.57;9.57;;;;;;;3.45;77.25;97840.66;5022699;28;20858;-72
2020/12/29 00:53:46;;;;;;;9.67;8.77;;;;;;;3.04;76.92;97840.13;5016883;28;20576;-73
2020/12/29 00:56:12;;;;;;;11.50;10.30;;;;;;;2.43;79.09;97839.59;5036757;28;20440;-72
2020/12/29 00:58:40;;;;;;;11.97;9.10;;;;;;;2.42;79.58;97839.63;5038622;28;20158;-72
2020/12/29 01:01:09;;;;;;;10.27;8.93;;;;;;;2.69;78.00;97829.19;5038156;28;20205;-72
2020/12/29 01:03:35;;;;;;;12.37;9.70;;;;;;;2.51;77.72;97842.16;5018092;28;20424;-72
2020/12/29 01:06:00;;;;;;;9.87;8.67;;;;;;;2.29;79.12;97831.13;5018943;28;20414;-73
2020/12/29 01:08:26;;;;;;;11.40;9.23;;;;;;;2.38;78.36;97830.22;5019264;28;20205;-73
2020/12/29 01:10:55;;;;;;;9.73;8.73;;;;;;;2.48;78.88;97843.03;5018902;28;20171;-73
2020/12/29 01:13:21;;;;;;;11.10;9.90;;;;;;;2.40;79.06;97836.22;5018602;28;20529;-72
2020/12/29 01:15:48;;;;;;;10.37;8.90;;;;;;;2.72;77.98;97835.19;5018890;28;20753;-72
2020/12/29 01:18:13;;;;;;;9.67;8.43;;;;;;;2.32;78.94;97831.94;5018744;28;20413;-72
2020/12/29 01:20:41;;;;;;;10.77;9.63;;;;;;;2.65;76.58;97835.22;5018535;28;20834;-73
2020/12/29 01:23:09;;;;;;;11.80;9.50;;;;;;;1.98;79.52;97839.78;5018988;28;20190;-73
2020/12/29 01:25:34;;;;;;;11.60;10.17;;;;;;;2.28;78.95;97840.53;5018292;28;20577;-72
2020/12/29 01:28:00;;;;;;;12.67;10.47;;;;;;;2.45;78.91;97831.88;5018358;28;20426;-73
2020/12/29 01:30:26;;;;;;;10.20;9.17;;;;;;;2.80;77.68;97838.56;5017858;28;20541;-71
2020/12/29 01:32:51;;;;;;;11.67;10.47;;;;;;;2.63;79.01;97838.66;5017467;28;20417;-73
2020/12/29 01:35:16;;;;;;;13.20;10.37;;;;;;;2.26;77.74;97842.28;5020749;28;20292;-72
2020/12/29 01:37:44;;;;;;;10.80;9.70;;;;;;;2.76;77.00;97839.44;5038232;28;20254;-72
2020/12/29 01:40:11;;;;;;;11.67;10.07;;;;;;;2.83;77.14;97841.13;5036846;28;20441;-73
2020/12/29 01:42:37;;;;;;;10.67;9.57;;;;;;;2.44;77.55;97841.31;5034163;28;20524;-71
2020/12/29 01:45:10;;;;;;;12.07;10.70;;;;;;;2.40;77.42;97843.94;5030317;28;20512;-74
2020/12/29 01:47:39;;;;;;;11.97;10.47;;;;;;;2.77;77.26;97838.59;5017891;28;20781;-72
2020/12/29 01:50:08;;;;;;;13.10;10.87;;;;;;;3.03;75.33;97833.25;5024928;28;20431;-72
2020/12/29 01:52:34;;;;;;;12.67;10.83;;;;;;;2.82;76.00;97832.53;5036721;28;20445;-72
2020/12/29 01:54:59;;;;;;;12.10;10.80;;;;;;;3.44;74.75;97831.25;5036882;28;20522;-72
2020/12/29 01:57:25;;;;;;;13.80;11.17;;;;;;;3.40;73.86;97830.41;5037039;28;20868;-72
2020/12/29 01:59:50;;;;;;;11.33;10.13;;;;;;;2.90;75.35;97829.94;5036745;28;20174;-72
2020/12/29 02:02:19;;;;;;;11.97;10.33;;;;;;;2.98;74.96;97828.16;5036602;28;20166;-72
2020/12/29 02:04:44;;;;;;;13.57;11.30;;;;;;;2.62;77.05;97837.78;5037788;28;20163;-71
2020/12/29 02:07:10;;;;;;;11.70;10.50;;;;;;;2.11;78.64;97834.59;5028831;28;20520;-72
2020/12/29 02:09:36;;;;;;;12.20;10.90;;;;;;;2.49;78.24;97833.56;5017590;28;20201;-72
2020/12/29 02:12:20;;;;;;;15.00;10.63;;;;;;;2.43;78.61;97834.47;5017874;28;20166;-72
2020/12/29 02:14:45;;;;;;;11.47;10.30;;;;;;;2.10;79.42;97831.19;5017559;28;20202;-72
2020/12/29 02:17:10;;;;;;;13.70;10.70;;;;;;;2.23;78.42;97820.84;5025653;28;20433;-71
2020/12/29 02:19:36;;;;;;;14.70;11.23;;;;;;;3.34;75.17;97810.72;5036660;28;20189;-72
2020/12/29 02:22:01;;;;;;;25.60;19.43;;;;;;;3.69;73.57;97814.69;5037229;28;20174;-73
2020/12/29 02:24:27;;;;;;;13.17;11.40;;;;;;;3.24;75.19;97819.38;5033700;28;20483;-73
2020/12/29 02:26:54;;;;;;;12.57;10.77;;;;;;;2.29;78.18;97819.13;5017634;28;20213;-71
2020/12/29 02:29:19;;;;;;;13.73;12.13;;;;;;;2.21;79.17;97827.72;5034528;28;20197;-72
2020/12/29 02:31:44;;;;;;;12.97;11.43;;;;;;;2.24;79.36;97828.56;5027828;28;20421;-73
2020/12/29 02:34:10;;;;;;;12.53;11.23;;;;;;;3.26;75.54;97817.66;5017464;28;20205;-72
2020/12/29 02:36:35;;;;;;;12.30;11.00;;;;;;;3.05;75.32;97820.41;5017851;28;20202;-71
2020/12/29 02:39:00;;;;;;;13.67;12.13;;;;;;;3.20;75.85;97810.81;5016589;28;20498;-73
2020/12/29 02:41:26;;;;;;;13.10;11.30;;;;;;;3.36;73.80;97823.59;5016473;28;20182;-73
2020/12/29 02:43:51;;;;;;;13.10;11.43;;;;;;;3.17;75.35;97817.72;5017560;28;20260;-72
2020/12/29 02:46:19;;;;;;;15.23;12.20;;;;;;;3.41;75.12;97821.81;5017380;28;20544;-72
2020/12/29 02:48:45;;;;;;;13.73;12.33;;;;;;;3.65;73.50;97820.75;5016632;28;20438;-73
2020/12/29 02:51:14;;;;;;;11.90;10.70;;;;;;;3.19;74.66;97818.56;5017496;28;20424;-73
2020/12/29 02:53:39;;;;;;;13.10;11.70;;;;;;;3.55;73.28;97816.53;5017222;28;20175;-72
2020/12/29 02:56:04;;;;;;;12.60;11.40;;;;;;;2.80;76.36;97815.41;5017261;28;20689;-72
2020/12/29 02:58:30;;;;;;;12.20;10.90;;;;;;;3.20;74.89;97812.53;5025307;28;20178;-71
2020/12/29 03:00:55;;;;;;;12.90;11.60;;;;;;;3.42;74.87;97823.50;5036679;28;20175;-71
2020/12/29 03:03:20;;;;;;;12.57;11.10;;;;;;;2.82;76.83;97816.25;5037052;28;20228;-72
2020/12/29 03:05:46;;;;;;;12.50;11.20;;;;;;;3.77;72.69;97829.22;5037361;28;20170;-72
2020/12/29 03:08:11;;;;;;;12.63;11.43;;;;;;;3.50;74.03;97821.72;5036899;28;20559;-72
2020/12/29 03:10:36;;;;;;;13.00;11.70;;;;;;;3.41;73.48;97820.94;5037483;28;20178;-72
2020/12/29 03:13:02;;;;;;;10.73;9.63;;;;;;;3.19;74.36;97824.56;5040117;28;20185;-74
2020/12/29 03:15:27;;;;;;;12.97;11.30;;;;;;;2.87;76.66;97829.97;5039666;28;20308;-72
2020/12/29 03:17:52;;;;;;;11.47;10.27;;;;;;;3.09;75.03;97832.38;5040454;28;20567;-73
2020/12/29 03:20:18;;;;;;;11.40;10.33;;;;;;;3.54;74.21;97832.84;5040825;28;20170;-72
2020/12/29 03:22:43;;;;;;;12.40;11.10;;;;;;;3.49;73.52;97839.75;5040504;28;20178;-73
2020/12/29 03:25:08;;;;;;;11.23;10.03;;;;;;;3.38;73.33;97842.44;5040367;28;20593;-73
2020/12/29 03:27:33;;;;;;;11.83;10.63;;;;;;;3.73;73.66;97833.53;5040469;28;20274;-72
2020/12/29 03:29:59;;;;;;;11.37;10.13;;;;;;;3.66;72.41;97842.19;5040017;28;20240;-72
2020/12/29 03:32:24;;;;;;;11.17;10.13;;;;;;;3.05;74.51;97836.69;5040312;28;20209;-73
2020/12/29 03:34:50;;;;;;;11.20;10.10;;;;;;;2.88;75.55;97846.25;5040624;28;20206;-73
2020/12/29 03:37:16;;;;;;;12.10;10.87;;;;;;;2.85;76.35;97841.97;5040333;28;20451;-72
2020/12/29 03:39:41;;;;;;;13.20;11.70;;;;;;;3.35;74.53;97838.16;5039973;28;20173;-72
2020/12/29 03:42:07;;;;;;;12.77;11.43;;;;;;;2.67;77.08;97846.34;5040518;28;20423;-72
2020/12/29 03:44:33;;;;;;;12.00;10.10;;;;;;;2.49;77.50;97855.03;5039374;28;20564;-74
2020/12/29 03:46:59;;;;;;;11.90;10.70;;;;;;;3.10;74.60;97847.81;5040083;28;20178;-72
2020/12/29 03:49:24;;;;;;;11.47;10.37;;;;;;;3.02;75.01;97855.56;5040160;28;20421;-73
2020/12/29 03:51:49;;;;;;;11.70;10.37;;;;;;;2.91;75.71;97859.06;5040088;28;20171;-72
2020/12/29 03:54:15;;;;;;;11.57;10.37;;;;;;;3.01;74.90;97853.84;5039792;28;20210;-72
2020/12/29 03:56:40;;;;;;;10.93;9.80;;;;;;;3.03;74.51;97851.28;5040264;28;20457;-72
2020/12/29 03:59:05;;;;;;;12.60;11.20;;;;;;;3.50;74.01;97849.22;5039682;28;20241;-72
2020/12/29 04:01:31;;;;;;;14.07;12.67;;;;;;;2.97;74.95;97846.19;5039875;28;20536;-73
2020/12/29 04:03:57;;;;;;;12.63;11.40;;;;;;;3.40;74.11;97853.59;5039283;28;20236;-73
2020/12/29 04:06:22;;;;;;;13.30;11.90;;;;;;;2.67;76.36;97851.50;5039699;28;20185;-72
2020/12/29 04:08:48;;;;;;;13.13;11.83;;;;;;;3.07;75.05;97857.25;5039575;28;20179;-73
2020/12/29 04:11:13;;;;;;;13.37;12.00;;;;;;;3.17;74.63;97843.47;5039063;28;20186;-72
2020/12/29 04:13:39;;;;;;;13.60;12.20;;;;;;;3.46;73.84;97856.09;5039573;28;20232;-72
2020/12/29 04:16:04;;;;;;;13.27;11.87;;;;;;;3.18;74.03;97852.88;5039556;28;20209;-73
2020/12/29 04:18:30;;;;;;;13.87;12.40;;;;;;;3.20;74.91;97851.16;5039798;28;20483;-73
2020/12/29 04:20:55;;;;;;;13.20;11.80;;;;;;;2.86;75.60;97849.66;5039193;28;20171;-72
2020/12/29 04:23:20;;;;;;;13.20;11.80;;;;;;;2.83;75.51;97848.84;5038963;28;20185;-72
2020/12/29 04:25:46;;;;;;;13.40;11.30;;;;;;;2.51;76.23;97844.72;5039093;28;20268;-72
2020/12/29 04:28:11;;;;;;;13.70;12.23;;;;;;;3.30;74.72;97839.94;5039048;28;20186;-72
2020/12/29 04:30:36;;;;;;;13.77;12.30;;;;;;;2.79;75.92;97840.28;5039324;28;20170;-72
2020/12/29 04:33:02;;;;;;;13.10;11.80;;;;;;;2.94;76.07;97841.91;5039129;28;20170;-72
2020/12/29 04:35:27;;;;;;;13.90;12.40;;;;;;;3.21;74.76;97850.31;5038216;28;20198;-72
2020/12/29 04:37:52;;;;;;;13.10;11.60;;;;;;;2.99;75.46;97845.31;5039369;28;20517;-71
2020/12/29 04:40:18;;;;;;;13.80;11.57;;;;;;;2.87;75.39;97855.69;5038882;28;20174;-72
2020/12/29 04:42:43;;;;;;;13.80;12.37;;;;;;;3.26;74.36;97850.25;5038930;28;20181;-72
2020/12/29 04:45:09;;;;;;;13.07;11.73;;;;;;;3.16;74.72;97862.34;5038625;28;20268;-72
2020/12/29 04:47:35;;;;;;;14.80;12.70;;;;;;;3.30;73.50;97859.66;5039063;28;20457;-71
2020/12/29 04:50:01;;;;;;;14.47;12.77;;;;;;;2.99;75.13;97860.75;5038167;28;20467;-73
2020/12/29 04:52:26;;;;;;;16.00;12.87;;;;;;;2.98;75.52;97858.19;5038523;28;20467;-72
2020/12/29 04:54:54;;;;;;;14.93;12.90;;;;;;;2.89;75.63;97861.66;5021459;28;20460;-72
2020/12/29 04:57:20;;;;;;;14.33;12.83;;;;;;;2.66;76.50;97864.38;5038583;28;20205;-72
2020/12/29 04:59:46;;;;;;;16.33;13.30;;;;;;;2.62;76.67;97854.97;5039041;28;20823;-72
2020/12/29 05:02:12;;;;;;;17.03;13.77;;;;;;;3.06;75.10;97856.41;5038520;28;20413;-71
2020/12/29 05:04:37;;;;;;;16.13;12.17;;;;;;;2.82;75.42;97863.41;5038485;28;20166;-71
2020/12/29 05:07:02;;;;;;;13.70;11.93;;;;;;;3.10;74.88;97862.38;5038934;28;20518;-73
2020/12/29 05:09:29;;;;;;;14.60;13.00;;;;;;;3.30;74.68;97864.81;5038437;28;20197;-71
2020/12/29 05:11:54;;;;;;;14.50;12.47;;;;;;;2.78;75.51;97860.88;5027808;28;20182;-72
2020/12/29 05:14:23;;;;;;;14.53;12.50;;;;;;;3.01;75.30;97853.84;5026167;28;20493;-71
2020/12/29 05:16:52;;;;;;;15.67;12.87;;;;;;;3.06;75.90;97861.56;5018618;28;20178;-72
2020/12/29 05:19:19;;;;;;;14.13;12.23;;;;;;;3.06;75.10;97852.97;5017631;28;20418;-72
2020/12/29 05:21:45;;;;;;;13.50;11.57;;;;;;;3.26;74.65;97858.84;5030819;28;20566;-73
2020/12/29 05:24:21;;;;;;;13.97;11.63;;;;;;;3.49;73.60;97857.78;5038005;28;20520;-72
2020/12/29 05:26:55;;;;;;;15.20;12.83;;;;;;;3.20;74.50;97864.88;5037559;28;20166;-72
2020/12/29 05:29:22;;;;;;;12.97;11.37;;;;;;;3.29;73.77;97863.09;5037188;28;20826;-72
2020/12/29 05:31:48;;;;;;;12.77;11.43;;;;;;;3.34;73.83;97861.34;5038096;28;20432;-73
2020/12/29 05:34:23;;;;;;;14.93;12.47;;;;;;;3.34;74.41;97856.19;5037179;28;20457;-73
2020/12/29 05:36:49;;;;;;;14.80;12.33;;;;;;;3.50;73.57;97862.09;5037818;28;20417;-72
2020/12/29 05:39:15;;;;;;;13.87;11.90;;;;;;;3.29;73.66;97868.25;5033285;28;20429;-73
2020/12/29 05:41:43;;;;;;;15.30;12.20;;;;;;;3.34;73.68;97867.38;5018079;28;20414;-73
2020/12/29 05:44:10;;;;;;;13.87;11.80;;;;;;;3.51;73.08;97859.50;5018437;28;20178;-71
2020/12/29 05:46:36;;;;;;;16.63;12.20;;;;;;;3.45;73.64;97880.16;5018042;28;20426;-71
2020/12/29 05:49:01;;;;;;;15.60;12.10;;;;;;;3.32;73.95;97876.81;5017864;28;20425;-71
2020/12/29 05:51:27;;;;;;;14.30;12.77;;;;;;;3.54;73.31;97867.22;5018239;28;20174;-72
2020/12/29 05:54:03;;;;;;;16.23;12.87;;;;;;;3.54;73.58;97867.22;5017921;28;20170;-72
2020/12/29 05:56:33;;;;;;;17.17;12.60;;;;;;;3.71;72.86;97869.63;5017903;28;20197;-72
2020/12/29 05:59:02;;;;;;;14.60;13.00;;;;;;;3.76;72.23;97863.56;5017693;28;20875;-72
2020/12/29 06:01:40;;;;;;;15.33;13.13;;;;;;;3.81;72.61;97867.81;5016949;28;20422;-72
2020/12/29 06:04:07;;;;;;;18.83;13.93;;;;;;;3.95;72.31;97864.25;5017779;28;20445;-73
2020/12/29 06:06:33;;;;;;;13.77;12.37;;;;;;;3.43;74.11;97860.44;5017689;28;20442;-72
2020/12/29 06:09:07;;;;;;;15.00;12.87;;;;;;;3.95;72.10;97861.66;5017596;28;20464;-73
2020/12/29 06:11:51;;;;;;;16.47;13.00;;;;;;;3.71;73.06;97868.78;5017581;28;20428;-72
2020/12/29 06:14:23;;;;;;;15.03;12.37;;;;;;;3.69;72.86;97868.81;5017439;28;20505;-72
2020/12/29 06:16:49;;;;;;;13.73;11.80;;;;;;;3.77;73.12;97866.13;5017630;28;20429;-72
2020/12/29 06:19:23;;;;;;;14.60;12.53;;;;;;;4.00;71.74;97871.06;5017334;28;20414;-72
2020/12/29 06:22:07;;;;;;;16.37;13.10;;;;;;;4.14;72.25;97876.09;5017347;28;20171;-73
2020/12/29 06:24:35;;;;;;;16.03;13.03;;;;;;;4.27;72.03;97873.38;5017344;28;20855;-73
2020/12/29 06:27:02;;;;;;;15.93;13.20;;;;;;;4.08;71.67;97875.28;5017492;28;20414;-73
2020/12/29 06:29:32;;;;;;;15.80;13.47;;;;;;;3.73;74.41;97879.91;5017339;28;20406;-72
2020/12/29 06:32:02;;;;;;;14.17;12.43;;;;;;;4.09;72.69;97882.16;5016787;28;20818;-72
2020/12/29 06:34:29;;;;;;;15.80;14.03;;;;;;;3.39;74.52;97887.91;5016681;28;20721;-72
2020/12/29 06:36:55;;;;;;;17.27;13.23;;;;;;;4.13;73.02;97896.72;5017355;28;20457;-73
2020/12/29 06:39:21;;;;;;;14.27;12.77;;;;;;;4.36;72.16;97894.75;5016887;28;20405;-72
2020/12/29 06:41:48;;;;;;;14.20;12.70;;;;;;;4.28;72.02;97904.28;5016605;28;20930;-72
2020/12/29 06:44:13;;;;;;;18.07;14.40;;;;;;;4.53;71.01;97904.88;5016440;28;20206;-71
2020/12/29 06:46:39;;;;;;;15.97;13.30;;;;;;;4.20;72.29;97899.22;5021648;28;20800;-73
2020/12/29 06:49:20;;;;;;;19.50;14.60;;;;;;;4.61;71.28;97898.75;5020478;28;20213;-71
2020/12/29 06:51:46;;;;;;;17.83;13.63;;;;;;;4.65;70.72;97897.84;5021197;28;20183;-72
2020/12/29 06:54:14;;;;;;;16.90;14.07;;;;;;;4.61;71.17;97904.75;5021087;28;20489;-72
2020/12/29 06:56:56;;;;;;;16.20;13.20;;;;;;;4.50;71.90;97907.47;5021140;28;20421;-73
2020/12/29 06:59:21;;;;;;;17.00;14.20;;;;;;;4.29;71.94;97907.72;5020912;28;20424;-72
2020/12/29 07:01:48;;;;;;;16.63;13.67;;;;;;;4.39;72.42;97909.34;5020967;28;20409;-73
2020/12/29 07:04:14;;;;;;;15.67;13.13;;;;;;;4.72;70.97;97912.38;5021309;28;20167;-71
2020/12/29 07:06:39;;;;;;;16.33;13.73;;;;;;;4.92;70.60;97911.28;5020919;28;20830;-72
2020/12/29 07:09:11;;;;;;;17.17;14.40;;;;;;;4.63;71.31;97920.25;5020174;28;20174;-73
2020/12/29 07:11:36;;;;;;;17.40;14.40;;;;;;;4.49;72.38;97920.41;5021249;28;20167;-72
2020/12/29 07:14:05;;;;;;;16.33;14.00;;;;;;;4.95;71.77;97922.44;5020786;28;20814;-73
2020/12/29 07:16:31;;;;;;;18.30;14.50;;;;;;;4.82;71.08;97919.13;5020951;28;20202;-72
2020/12/29 07:19:10;;;;;;;16.10;14.10;;;;;;;4.70;71.82;97939.94;5037166;28;20436;-72
2020/12/29 07:21:35;;;;;;;18.90;15.00;;;;;;;4.37;72.80;97934.28;5040543;28;20180;-72
2020/12/29 07:24:04;;;;;;;18.90;14.57;;;;;;;4.55;73.18;97928.06;5040336;28;20674;-73
2020/12/29 07:26:29;;;;;;;19.50;15.97;;;;;;;4.53;72.94;97928.09;5022068;28;20199;-73
2020/12/29 07:28:56;;;;;;;18.03;14.33;;;;;;;4.63;71.74;97930.56;5020460;28;20792;-72
2020/12/29 07:31:21;;;;;;;19.03;15.53;;;;;;;4.35;73.82;97928.28;5030212;28;20174;-73
2020/12/29 07:33:53;;;;;;;20.00;15.40;;;;;;;4.76;72.50;97939.00;5040326;28;20732;-72
2020/12/29 07:36:20;;;;;;;21.60;16.00;;;;;;;4.83;72.17;97946.66;5040093;28;20186;-72
2020/12/29 07:38:47;;;;;;;19.40;15.73;;;;;;;4.79;72.51;97952.75;5034339;28;20446;-71
2020/12/29 07:41:14;;;;;;;21.73;16.23;;;;;;;4.89;71.60;97969.81;5020247;28;20425;-72
2020/12/29 07:43:40;;;;;;;21.57;15.27;;;;;;;5.06;71.70;97967.03;5020218;28;20709;-71
2020/12/29 07:46:05;;;;;;;22.03;15.27;;;;;;;5.35;70.48;97972.66;5020669;28;20414;-72
2020/12/29 07:48:31;;;;;;;18.50;14.23;;;;;;;4.80;72.66;97976.81;5020213;28;20184;-72
2020/12/29 07:50:59;;;;;;;18.27;14.63;;;;;;;5.04;71.11;97979.09;5020435;28;20293;-72
2020/12/29 07:53:25;;;;;;;19.10;15.63;;;;;;;5.14;71.13;97991.88;5020496;28;20257;-72
2020/12/29 07:55:51;;;;;;;18.77;14.53;;;;;;;4.76;72.42;97991.47;5039117;28;20560;-71
2020/12/29 07:58:16;;;;;;;21.30;15.17;;;;;;;4.75;72.28;97992.38;5028398;28;20183;-71
2020/12/29 08:00:41;;;;;;;20.63;16.07;;;;;;;4.82;72.19;97993.16;5021096;28;20429;-73
2020/12/29 08:03:07;;;;;;;22.80;16.50;;;;;;;4.99;71.51;98000.69;5039754;28;20556;-73
2020/12/29 08:05:33;;;;;;;22.37;15.97;;;;;;;4.91;71.56;98002.50;5034242;28;20391;-73
2020/12/29 08:08:03;;;;;;;20.30;15.43;;;;;;;5.10;71.87;98009.16;5020308;28;20485;-72
2020/12/29 08:10:31;;;;;;;21.40;15.77;;;;;;;4.88;71.86;98011.13;5038096;28;20437;-73
2020/12/29 08:12:58;;;;;;;20.30;15.70;;;;;;;4.83;71.87;98020.66;5025936;28;20438;-73
2020/12/29 08:15:33;;;;;;;20.83;16.07;;;;;;;4.68;73.29;98017.38;5020090;28;21026;-73
2020/12/29 08:18:09;;;;;;;20.40;16.07;;;;;;;4.94;72.70;98023.09;5019830;28;20807;-73
2020/12/29 08:20:48;;;;;;;19.10;16.00;;;;;;;4.46;73.16;98028.78;5019544;28;20417;-72
2020/12/29 08:23:15;;;;;;;20.70;15.90;;;;;;;4.87;72.89;98030.94;5031723;28;20441;-72
2020/12/29 08:25:50;;;;;;;21.17;16.10;;;;;;;4.77;73.12;98038.81;5039055;28;20460;-73
2020/12/29 08:28:15;;;;;;;23.20;17.20;;;;;;;4.44;74.54;98039.13;5039309;28;20423;-73
2020/12/29 08:30:40;;;;;;;21.60;16.77;;;;;;;4.40;74.49;98050.34;5038291;28;20429;-74
2020/12/29 08:33:06;;;;;;;20.30;17.00;;;;;;;4.36;74.41;98041.75;5039538;28;20253;-72
2020/12/29 08:35:33;;;;;;;21.03;16.80;;;;;;;4.55;74.16;98054.50;5038329;28;20206;-73
2020/12/29 08:38:01;;;;;;;22.03;16.60;;;;;;;4.61;74.29;98051.84;5038479;28;20344;-72
2020/12/29 08:40:28;;;;;;;21.13;17.10;;;;;;;4.57;74.02;98054.47;5039515;28;20795;-73
2020/12/29 08:42:54;;;;;;;21.50;16.83;;;;;;;4.74;73.24;98062.91;5030935;28;20870;-72
2020/12/29 08:45:26;;;;;;;21.97;17.20;;;;;;;5.12;72.19;98060.78;5019079;28;20507;-72
2020/12/29 08:47:54;;;;;;;21.77;17.20;;;;;;;5.08;72.29;98062.53;5019299;28;20178;-73
2020/12/29 08:50:21;;;;;;;26.17;17.97;;;;;;;4.93;73.66;98063.56;5018946;28;20421;-74
2020/12/29 08:52:52;;;;;;;25.07;18.87;;;;;;;5.33;72.33;98060.53;5018887;28;20418;-73
2020/12/29 08:55:27;;;;;;;31.70;22.00;;;;;;;4.81;73.93;98063.72;5018907;28;20768;-73
2020/12/29 08:57:54;;;;;;;26.77;21.17;;;;;;;5.03;73.01;98067.78;5018871;28;20413;-73
2020/12/29 09:00:20;;;;;;;29.80;22.20;;;;;;;5.01;74.06;98061.75;5018855;28;20418;-72
2020/12/29 09:02:45;;;;;;;28.60;22.03;;;;;;;5.50;72.48;98062.03;5018935;28;20422;-73
2020/12/29 09:05:10;;;;;;;27.93;22.10;;;;;;;5.52;71.94;98061.16;5025476;28;20532;-72
2020/12/29 09:07:42;;;;;;;26.77;22.80;;;;;;;5.33;71.89;98060.53;5018631;28;20175;-73
2020/12/29 09:10:08;;;;;;;26.50;22.17;;;;;;;5.47;71.29;98067.25;5036585;28;20269;-73
2020/12/29 09:12:35;;;;;;;27.00;22.43;;;;;;;5.78;70.78;98059.06;5038741;28;20813;-72
2020/12/29 09:15:08;;;;;;;26.00;20.50;;;;;;;5.60;70.68;98068.78;5038172;28;20492;-73
2020/12/29 09:17:35;;;;;;;26.13;22.27;;;;;;;5.54;71.37;98086.97;5038234;28;20425;-73
2020/12/29 09:20:23;;;;;;;25.70;21.33;;;;;;;5.65;70.92;98082.50;5030859;28;20819;-72
2020/12/29 09:23:15;;;;;;;24.80;20.30;;;;;;;5.67;71.48;98088.50;5034768;28;20433;-72
2020/12/29 09:25:42;;;;;;;25.80;20.63;;;;;;;5.61;70.65;98093.75;5037709;28;20480;-73
2020/12/29 09:28:24;;;;;;;23.00;19.47;;;;;;;5.82;70.22;98100.38;5038055;28;20433;-73
2020/12/29 09:30:52;;;;;;;23.33;19.40;;;;;;;5.56;70.25;98109.34;5038188;28;20417;-73
2020/12/29 09:33:21;;;;;;;21.03;18.73;;;;;;;5.72;69.63;98112.56;5018873;28;20457;-73
2020/12/29 09:35:47;;;;;;;23.80;19.43;;;;;;;5.90;69.05;98115.78;5018096;28;20523;-74
2020/12/29 09:38:14;;;;;;;22.70;19.60;;;;;;;5.89;69.61;98130.44;5018309;28;20410;-73
2020/12/29 09:40:39;;;;;;;23.37;19.83;;;;;;;6.05;69.42;98125.09;5018249;28;20410;-72
2020/12/29 09:43:04;;;;;;;23.50;19.93;;;;;;;6.04;69.40;98136.31;5018046;28;20679;-73
2020/12/29 09:45:30;;;;;;;25.83;18.27;;;;;;;5.80;69.20;98134.88;5017956;28;20479;-73
2020/12/29 09:47:55;;;;;;;20.50;18.30;;;;;;;5.69;69.63;98138.44;5018235;28;20206;-73
2020/12/29 09:50:20;;;;;;;23.83;19.93;;;;;;;5.82;68.96;98141.75;5017751;28;20175;-73
2020/12/29 09:52:46;;;;;;;21.30;18.97;;;;;;;5.86;69.69;98145.16;5018917;28;20218;-73
2020/12/29 09:55:11;;;;;;;22.80;19.10;;;;;;;5.69;69.94;98156.53;5019882;28;20206;-72
2020/12/29 09:57:37;;;;;;;22.73;18.00;;;;;;;5.62;69.89;98149.75;5020299;28;20186;-73
2020/12/29 10:00:04;;;;;;;20.13;17.50;;;;;;;6.15;69.01;98157.69;5021856;28;20248;-73
2020/12/29 10:02:30;;;;;;;22.73;20.00;;;;;;;5.94;69.19;98156.25;5037190;28;20179;-73
2020/12/29 10:04:55;;;;;;;19.93;17.80;;;;;;;5.87;68.50;98157.19;5022316;28;20434;-73
2020/12/29 10:07:20;;;;;;;20.63;16.50;;;;;;;5.94;68.99;98158.84;5021017;28;20182;-72
2020/12/29 10:09:46;;;;;;;20.70;17.73;;;;;;;5.88;68.48;98157.16;5021510;28;20548;-74
2020/12/29 10:12:11;;;;;;;21.03;16.47;;;;;;;5.70;68.78;98160.84;5022190;28;20502;-73
2020/12/29 10:14:36;;;;;;;20.67;17.97;;;;;;;5.73;69.09;98171.13;5021731;28;20223;-73
2020/12/29 10:17:01;;;;;;;19.70;17.60;;;;;;;5.94;68.44;98164.00;5021974;28;20558;-74
2020/12/29 10:19:27;;;;;;;17.63;15.80;;;;;;;5.81;68.88;98167.63;5021408;28;20182;-72
2020/12/29 10:21:56;;;;;;;17.93;15.70;;;;;;;6.14;67.67;98162.88;5022036;28;20194;-73
2020/12/29 10:24:22;;;;;;;17.83;15.93;;;;;;;6.13;67.58;98172.41;5024589;28;20259;-71
2020/12/29 10:26:52;;;;;;;18.80;16.10;;;;;;;6.04;68.27;98177.69;5020738;28;20452;-72
2020/12/29 10:29:18;;;;;;;19.00;17.00;;;;;;;6.44;67.07;98163.31;5024072;28;20437;-74
2020/12/29 10:31:43;;;;;;;21.00;16.60;;;;;;;6.22;67.04;98161.94;5022182;28;20536;-72
2020/12/29 10:34:12;;;;;;;18.77;16.10;;;;;;;6.54;66.37;98167.50;5025449;28;20777;-73
2020/12/29 10:36:38;;;;;;;17.87;15.97;;;;;;;6.16;67.41;98168.91;5025188;28;20229;-72
2020/12/29 10:39:04;;;;;;;17.13;15.23;;;;;;;5.96;67.68;98170.00;5026259;28;20905;-73
2020/12/29 10:41:30;;;;;;;18.10;15.53;;;;;;;6.07;67.12;98175.94;5031212;28;20213;-74
2020/12/29 10:43:56;;;;;;;16.57;14.87;;;;;;;5.80;68.20;98174.50;5024642;28;20867;-74
2020/12/29 10:46:22;;;;;;;16.70;14.73;;;;;;;6.23;67.26;98176.53;5021754;28;20188;-73
2020/12/29 10:48:47;;;;;;;19.70;15.40;;;;;;;6.11;67.48;98178.47;5032325;28;20552;-74
2020/12/29 10:51:20;;;;;;;18.90;14.70;;;;;;;6.15;67.16;98165.44;5019926;28;20421;-74
2020/12/29 10:53:45;;;;;;;16.97;15.13;;;;;;;5.76;68.79;98169.41;5020870;28;20204;-74
2020/12/29 10:56:11;;;;;;;19.10;15.50;;;;;;;6.05;68.18;98172.50;5026527;28;20477;-74
2020/12/29 10:58:37;;;;;;;16.53;14.30;;;;;;;6.21;67.84;98174.84;5026977;28;20928;-72
2020/12/29 11:01:04;;;;;;;17.30;15.17;;;;;;;6.02;67.67;98166.50;5032755;28;20189;-73
2020/12/29 11:03:29;;;;;;;19.00;14.20;;;;;;;5.62;68.45;98173.00;5031393;28;20532;-72
2020/12/29 11:05:54;;;;;;;15.23;13.73;;;;;;;5.56;68.60;98178.22;5020091;28;20512;-72
2020/12/29 11:08:20;;;;;;;17.40;14.47;;;;;;;5.81;68.68;98175.38;5024985;28;20194;-73
2020/12/29 11:10:48;;;;;;;14.10;12.30;;;;;;;5.34;70.12;98178.47;5033735;28;20237;-72
2020/12/29 11:13:14;;;;;;;14.37;12.87;;;;;;;5.17;71.14;98172.66;5023147;28;20205;-72
2020/12/29 11:15:39;;;;;;;16.80;14.27;;;;;;;5.34;69.86;98186.22;5021472;28;20476;-73
2020/12/29 11:18:04;;;;;;;17.03;13.50;;;;;;;5.92;67.62;98183.00;5023492;28;20191;-73
2020/12/29 11:20:30;;;;;;;14.83;12.77;;;;;;;5.96;67.56;98182.91;5026180;28;20289;-73
2020/12/29 11:22:55;;;;;;;16.63;13.27;;;;;;;5.89;67.85;98176.97;5015443;28;20556;-73
2020/12/29 11:25:20;;;;;;;18.77;13.30;;;;;;;5.98;67.73;98181.22;5013991;28;20231;-72
2020/12/29 11:27:46;;;;;;;15.83;14.03;;;;;;;6.11;68.06;98178.47;5016056;28;20186;-72